createdAt,value
2023-04-17T00:02:15.637Z,38.70
2023-04-17T00:04:43.764Z,38.77
2023-04-17T00:07:11.761Z,38.95
2023-04-17T00:09:39.597Z,38.65
2023-04-17T00:12:07.478Z,38.96
2023-04-17T00:14:35.304Z,38.85
2023-04-17T00:17:03.103Z,38.74
2023-04-17T00:19:30.907Z,39.11
2023-04-17T00:21:58.743Z,39.30
2023-04-17T00:24:26.507Z,38.95
2023-04-17T00:26:54.356Z,38.81
2023-04-17T00:29:22.167Z,38.71
2023-04-17T00:31:49.948Z,39.20
2023-04-17T00:34:17.846Z,38.80
2023-04-17T00:36:45.612Z,38.77
2023-04-17T00:39:13.654Z,38.86
2023-04-17T00:41:41.682Z,38.85
2023-04-17T00:44:09.648Z,38.86
2023-04-17T00:46:37.411Z,38.98
2023-04-17T00:49:05.237Z,38.86
2023-04-17T00:51:33.051Z,39.19
2023-04-17T00:54:00.963Z,39.02
2023-04-17T00:56:28.738Z,38.67
2023-04-17T00:58:56.575Z,39.06
2023-04-17T01:01:24.503Z,39.05
2023-04-17T01:03:55.834Z,39.07
2023-04-17T01:06:23.793Z,38.83
2023-04-17T01:08:51.673Z,39.01
2023-04-17T01:11:19.511Z,38.91
2023-04-17T01:13:47.471Z,39.09
2023-04-17T01:16:17.631Z,39.19
2023-04-17T01:18:46.715Z,39.33
2023-04-17T01:21:14.551Z,38.85
2023-04-17T01:23:42.376Z,38.97
2023-04-17T01:26:10.141Z,38.96
2023-04-17T01:28:40.393Z,39.44
2023-04-17T01:31:08.259Z,39.28
2023-04-17T01:33:36.263Z,39.36
2023-04-17T01:36:04.123Z,38.84
2023-04-17T01:38:31.938Z,38.88
2023-04-17T01:40:59.839Z,38.87
2023-04-17T01:43:27.603Z,39.34
2023-04-17T01:45:55.727Z,39.10
2023-04-17T01:48:23.500Z,39.07
2023-04-17T01:50:51.490Z,38.89
2023-04-17T01:53:19.300Z,39.17
2023-04-17T01:55:47.262Z,39.36
2023-04-17T01:58:15.073Z,38.99
2023-04-17T02:00:42.855Z,39.15
2023-04-17T02:03:11.210Z,39.19
2023-04-17T02:05:39.095Z,39.23
2023-04-17T02:08:06.948Z,39.18
2023-04-17T02:10:34.791Z,38.89
2023-04-17T02:13:02.697Z,38.85
2023-04-17T02:15:30.527Z,39.00
2023-04-17T02:17:58.430Z,39.44
2023-04-17T02:20:26.209Z,39.05
2023-04-17T02:22:54.044Z,39.25
2023-04-17T02:25:21.990Z,39.02
2023-04-17T02:27:49.744Z,39.28
2023-04-17T02:30:17.668Z,38.94
2023-04-17T02:32:46.001Z,38.97
2023-04-17T02:35:14.086Z,39.17
2023-04-17T02:37:41.891Z,39.35
2023-04-17T02:40:10.293Z,39.47
2023-04-17T02:42:38.075Z,39.27
2023-04-17T02:45:05.899Z,39.09
2023-04-17T02:47:33.871Z,39.18
2023-04-17T02:50:01.683Z,38.99
2023-04-17T02:52:29.664Z,39.41
2023-04-17T02:54:57.783Z,39.42
2023-04-17T02:57:25.755Z,39.32
2023-04-17T02:59:53.588Z,39.48
2023-04-17T03:02:22.077Z,39.16
2023-04-17T03:04:50.641Z,39.17
2023-04-17T03:07:19.664Z,39.30
2023-04-17T03:09:47.986Z,39.20
2023-04-17T03:12:15.917Z,39.08
2023-04-17T03:14:43.753Z,39.26
2023-04-17T03:17:12.066Z,39.14
2023-04-17T03:19:39.962Z,39.40
2023-04-17T03:22:07.718Z,39.41
2023-04-17T03:24:38.682Z,39.67
2023-04-17T03:27:06.463Z,39.51
2023-04-17T03:29:34.270Z,39.42
2023-04-17T03:32:02.303Z,39.25
2023-04-17T03:34:30.160Z,39.47
2023-04-17T03:36:58.884Z,39.38
2023-04-17T03:39:26.699Z,39.33
2023-04-17T03:41:54.563Z,39.20
2023-04-17T03:44:22.382Z,39.24
2023-04-17T03:46:50.201Z,39.30
2023-04-17T03:49:17.990Z,39.30
2023-04-17T03:51:45.742Z,39.21
2023-04-17T03:54:13.521Z,39.48
2023-04-17T03:56:41.468Z,39.37
2023-04-17T03:59:09.885Z,39.48
2023-04-17T04:01:39.228Z,39.27
2023-04-17T04:04:07.305Z,39.16
2023-04-17T04:06:35.311Z,39.33
2023-04-17T04:09:03.225Z,39.06
2023-04-17T04:11:31.301Z,38.99
2023-04-17T04:13:59.363Z,38.86
2023-04-17T04:16:29.067Z,39.00
2023-04-17T04:18:56.941Z,39.01
2023-04-17T04:21:24.940Z,38.90
2023-04-17T04:23:59.559Z,39.39
2023-04-17T04:26:27.719Z,39.33
2023-04-17T04:28:56.746Z,39.29
2023-04-17T04:31:25.760Z,39.19
2023-04-17T04:33:55.401Z,39.13
2023-04-17T04:36:24.063Z,39.35
2023-04-17T04:38:51.866Z,38.78
2023-04-17T04:41:20.065Z,39.16
2023-04-17T04:43:47.894Z,39.02
2023-04-17T04:46:15.726Z,39.11
2023-04-17T04:48:43.547Z,39.35
2023-04-17T04:51:11.376Z,39.27
2023-04-17T04:53:39.200Z,38.91
2023-04-17T04:56:07.166Z,39.10
2023-04-17T04:58:35.030Z,38.85
2023-04-17T05:01:04.126Z,38.92
2023-04-17T05:03:32.442Z,38.83
2023-04-17T05:06:00.387Z,38.94
2023-04-17T05:08:28.262Z,39.15
2023-04-17T05:10:56.053Z,38.90
2023-04-17T05:13:23.991Z,39.10
2023-04-17T05:15:52.107Z,38.84
2023-04-17T05:18:19.892Z,38.96
2023-04-17T05:20:47.996Z,39.15
2023-04-17T05:23:15.764Z,38.62
2023-04-17T05:25:43.540Z,38.82
2023-04-17T05:28:16.655Z,38.49
2023-04-17T05:30:44.977Z,39.05
2023-04-17T05:33:12.730Z,38.94
2023-04-17T05:35:40.580Z,39.26
2023-04-17T05:38:08.361Z,39.08
2023-04-17T05:40:36.128Z,39.00
2023-04-17T05:43:03.888Z,38.77
2023-04-17T05:45:31.741Z,38.60
2023-04-17T05:47:59.547Z,38.78
2023-04-17T05:50:27.369Z,38.59
2023-04-17T05:52:55.184Z,38.78
2023-04-17T05:55:22.966Z,38.72
2023-04-17T05:57:50.897Z,38.89
2023-04-17T06:00:18.847Z,39.02
2023-04-17T06:02:46.818Z,38.80
2023-04-17T06:05:16.502Z,38.82
2023-04-17T06:07:44.445Z,38.55
2023-04-17T06:10:12.931Z,38.57
2023-04-17T06:12:41.195Z,38.70
2023-04-17T06:15:10.156Z,38.70
2023-04-17T06:17:38.306Z,38.66
2023-04-17T06:20:09.986Z,38.71
2023-04-17T06:22:39.966Z,38.71
2023-04-17T06:25:07.809Z,38.80
2023-04-17T06:27:37.081Z,38.77
2023-04-17T06:30:05.221Z,38.71
2023-04-17T06:32:33.066Z,38.72
2023-04-17T06:35:00.882Z,38.74
2023-04-17T06:37:28.650Z,38.89
2023-04-17T06:39:56.454Z,38.52
2023-04-17T06:42:25.051Z,38.78
2023-04-17T06:44:54.494Z,38.50
2023-04-17T06:47:22.423Z,38.60
2023-04-17T06:49:50.326Z,38.60
2023-04-17T06:52:20.208Z,38.67
2023-04-17T06:54:48.054Z,38.48
2023-04-17T06:57:16.942Z,38.71
2023-04-17T06:59:44.958Z,38.68
2023-04-17T07:02:13.057Z,38.45
2023-04-17T07:04:40.997Z,38.59
2023-04-17T07:07:08.862Z,38.72
2023-04-17T07:09:36.744Z,38.39
2023-04-17T07:12:04.980Z,38.30
2023-04-17T07:14:33.611Z,38.67
2023-04-17T07:17:01.432Z,38.39
2023-04-17T07:19:29.223Z,38.67
2023-04-17T07:21:57.116Z,38.72
2023-04-17T07:24:25.123Z,38.78
2023-04-17T07:26:52.901Z,38.70
2023-04-17T07:29:20.780Z,38.61
2023-04-17T07:31:48.613Z,38.65
2023-04-17T07:34:17.589Z,38.77
2023-04-17T07:36:45.768Z,38.66
2023-04-17T07:39:13.762Z,38.29
2023-04-17T07:41:41.895Z,38.60
2023-04-17T07:44:09.702Z,38.78
2023-04-17T07:46:37.572Z,38.51
2023-04-17T07:49:05.585Z,38.53
2023-04-17T07:51:33.591Z,38.58
2023-04-17T07:54:01.521Z,38.76
2023-04-17T07:56:29.444Z,38.44
2023-04-17T07:58:58.412Z,38.70
2023-04-17T08:01:26.386Z,38.34
2023-04-17T08:03:55.635Z,38.33
2023-04-17T08:06:23.612Z,38.68
2023-04-17T08:08:51.376Z,38.42
2023-04-17T08:11:19.296Z,38.14
2023-04-17T08:13:47.177Z,38.23
2023-04-17T08:16:14.985Z,38.25
2023-04-17T08:18:42.895Z,38.25
2023-04-17T08:21:10.794Z,38.02
2023-04-17T08:23:38.592Z,38.50
2023-04-17T08:26:06.567Z,38.31
2023-04-17T08:28:34.404Z,38.35
2023-04-17T08:31:02.334Z,38.23
2023-04-17T08:33:30.170Z,37.83
2023-04-17T08:35:57.984Z,37.91
2023-04-17T08:38:27.320Z,37.91
2023-04-17T08:40:55.104Z,37.76
2023-04-17T08:43:23.457Z,37.68
2023-04-17T08:45:54.222Z,38.02
2023-04-17T08:48:22.238Z,37.99
2023-04-17T08:50:50.051Z,37.84
2023-04-17T08:53:20.632Z,37.54
2023-04-17T08:55:48.492Z,37.90
2023-04-17T08:58:16.468Z,37.47
2023-04-17T09:00:44.268Z,37.67
2023-04-17T09:03:12.374Z,37.75
2023-04-17T09:05:41.895Z,37.76
2023-04-17T09:08:09.857Z,37.75
2023-04-17T09:10:37.945Z,37.78
2023-04-17T09:13:06.109Z,37.72
2023-04-17T09:15:33.984Z,37.21
2023-04-17T09:18:02.022Z,37.13
2023-04-17T09:20:29.954Z,37.28
2023-04-17T09:22:57.792Z,37.38
2023-04-17T09:25:26.455Z,37.54
2023-04-17T09:27:54.237Z,37.32
2023-04-17T09:30:22.832Z,37.31
2023-04-17T09:32:50.621Z,37.25
2023-04-17T09:35:18.432Z,37.65
2023-04-17T09:37:47.239Z,37.18
2023-04-17T09:40:15.035Z,37.52
2023-04-17T09:42:43.100Z,37.48
2023-04-17T09:45:10.988Z,37.46
2023-04-17T09:47:39.226Z,37.37
2023-04-17T09:50:07.086Z,36.73
2023-04-17T09:52:35.489Z,37.14
2023-04-17T09:55:06.961Z,37.39
2023-04-17T09:57:34.969Z,37.01
2023-04-17T10:00:05.650Z,37.14
2023-04-17T10:02:33.597Z,37.08
2023-04-17T10:05:02.503Z,36.95
2023-04-17T10:07:31.199Z,36.71
2023-04-17T10:10:01.136Z,36.93
2023-04-17T10:12:29.062Z,37.26
2023-04-17T10:14:56.858Z,37.23
2023-04-17T10:17:24.928Z,36.82
2023-04-17T10:19:52.939Z,36.67
2023-04-17T10:22:20.773Z,36.29
2023-04-17T10:24:48.493Z,36.59
2023-04-17T10:27:16.564Z,36.59
2023-04-17T10:29:44.354Z,36.53
2023-04-17T10:32:12.216Z,36.76
2023-04-17T10:34:42.459Z,36.53
2023-04-17T10:37:15.847Z,36.25
2023-04-17T10:39:43.655Z,36.41
2023-04-17T10:42:11.433Z,36.11
2023-04-17T10:44:39.301Z,36.41
2023-04-17T10:47:07.151Z,36.07
2023-04-17T10:49:34.963Z,36.44
2023-04-17T10:52:02.792Z,36.21
2023-04-17T10:54:31.405Z,36.16
2023-04-17T10:56:59.261Z,36.15
2023-04-17T10:59:30.228Z,35.85
2023-04-17T11:02:00.955Z,35.73
2023-04-17T11:04:29.340Z,36.36
2023-04-17T11:06:57.292Z,36.08
2023-04-17T11:09:25.090Z,36.56
2023-04-17T11:11:52.893Z,36.08
2023-04-17T11:14:20.701Z,36.32
2023-04-17T11:16:48.598Z,36.13
2023-04-17T11:19:16.462Z,36.24
2023-04-17T11:21:44.271Z,36.04
2023-04-17T11:24:12.164Z,36.52
2023-04-17T11:26:40.259Z,36.03
2023-04-17T11:29:08.097Z,36.20
2023-04-17T11:31:36.767Z,35.97
2023-04-17T11:34:08.357Z,36.06
2023-04-17T11:36:36.149Z,35.87
2023-04-17T11:39:04.900Z,36.13
2023-04-17T11:41:32.721Z,36.48
2023-04-17T11:44:00.500Z,35.99
2023-04-17T11:46:28.338Z,36.25
2023-04-17T11:48:56.409Z,36.02
2023-04-17T11:51:24.254Z,35.81
2023-04-17T11:53:52.310Z,36.07
2023-04-17T11:56:20.148Z,35.44
2023-04-17T11:58:48.183Z,36.26
2023-04-17T12:01:15.985Z,36.27
2023-04-17T12:03:45.454Z,35.93
2023-04-17T12:06:13.625Z,35.57
2023-04-17T12:08:41.465Z,35.97
2023-04-17T12:11:10.524Z,35.34
2023-04-17T12:13:38.317Z,35.24
2023-04-17T12:16:06.538Z,35.39
2023-04-17T12:18:34.369Z,35.52
2023-04-17T12:21:02.320Z,35.63
2023-04-17T12:23:30.205Z,35.60
2023-04-17T12:25:57.958Z,35.82
2023-04-17T12:28:25.774Z,35.79
2023-04-17T12:30:53.613Z,35.50
2023-04-17T12:33:21.470Z,35.78
2023-04-17T12:35:49.238Z,35.34
2023-04-17T12:38:17.221Z,35.87
2023-04-17T12:40:45.985Z,35.31
2023-04-17T12:43:14.353Z,35.36
2023-04-17T12:45:46.084Z,35.48
2023-04-17T12:48:17.587Z,35.54
2023-04-17T12:50:45.700Z,35.89
2023-04-17T12:53:13.582Z,35.87
2023-04-17T12:55:42.091Z,35.89
2023-04-17T12:58:10.291Z,35.40
2023-04-17T13:00:38.144Z,35.55
2023-04-17T13:03:06.075Z,35.94
2023-04-17T13:05:34.419Z,35.75
2023-04-17T13:08:02.674Z,35.62
2023-04-17T13:10:31.142Z,35.80
2023-04-17T13:12:58.969Z,35.42
2023-04-17T13:15:26.787Z,35.64
2023-04-17T13:17:54.618Z,36.13
2023-04-17T13:20:22.664Z,35.47
2023-04-17T13:22:50.471Z,35.62
2023-04-17T13:25:18.238Z,35.37
2023-04-17T13:27:46.042Z,35.56
2023-04-17T13:30:13.820Z,35.40
2023-04-17T13:32:41.707Z,35.05
2023-04-17T13:35:09.793Z,35.57
2023-04-17T13:37:37.591Z,35.13
2023-04-17T13:40:05.919Z,34.99
2023-04-17T13:42:33.744Z,35.28
2023-04-17T13:45:01.709Z,35.03
2023-04-17T13:47:29.488Z,34.48
2023-04-17T13:49:57.522Z,34.38
2023-04-17T13:52:25.439Z,34.03
2023-04-17T13:54:53.563Z,33.76
2023-04-17T13:57:21.482Z,32.82
2023-04-17T13:59:49.218Z,32.69
2023-04-17T14:02:17.123Z,32.71
2023-04-17T14:04:45.160Z,32.23
2023-04-17T14:07:15.411Z,32.41
2023-04-17T14:09:43.298Z,32.95
2023-04-17T14:12:11.124Z,31.57
2023-04-17T14:14:38.961Z,32.53
2023-04-17T14:17:06.729Z,31.64
2023-04-17T14:19:34.562Z,32.58
2023-04-17T14:22:02.454Z,32.39
2023-04-17T14:24:30.310Z,32.02
2023-04-17T14:26:58.218Z,32.35
2023-04-17T14:29:26.100Z,32.27
2023-04-17T14:31:54.750Z,32.59
2023-04-17T14:34:22.744Z,31.60
2023-04-17T14:36:50.551Z,32.22
2023-04-17T14:39:19.723Z,32.21
2023-04-17T14:41:47.576Z,32.97
2023-04-17T14:44:15.695Z,33.61
2023-04-17T14:46:44.220Z,33.14
2023-04-17T14:49:12.167Z,32.27
2023-04-17T14:51:40.645Z,33.22
2023-04-17T14:54:09.021Z,32.50
2023-04-17T14:56:36.846Z,31.73
2023-04-17T14:59:05.393Z,32.69
2023-04-17T15:01:33.391Z,33.75
2023-04-17T15:04:02.142Z,32.37
2023-04-17T15:06:30.089Z,33.59
2023-04-17T15:08:57.906Z,32.74
2023-04-17T15:11:25.923Z,32.19
2023-04-17T15:13:53.675Z,33.56
2023-04-17T15:16:21.490Z,33.03
2023-04-17T15:18:49.722Z,33.25
2023-04-17T15:21:17.620Z,32.37
2023-04-17T15:23:45.475Z,33.42
2023-04-17T15:26:13.276Z,33.27
2023-04-17T15:28:41.048Z,33.37
2023-04-17T15:31:08.964Z,33.76
2023-04-17T15:33:36.756Z,33.57
2023-04-17T15:36:05.044Z,33.93
2023-04-17T15:38:32.915Z,33.59
2023-04-17T15:41:00.973Z,33.75
2023-04-17T15:43:28.774Z,34.29
2023-04-17T15:45:56.864Z,34.06
2023-04-17T15:48:24.691Z,34.20
2023-04-17T15:50:52.645Z,34.67
2023-04-17T15:53:20.399Z,34.76
2023-04-17T15:55:48.218Z,34.83
2023-04-17T15:58:16.164Z,34.40
2023-04-17T16:00:43.925Z,33.96
2023-04-17T16:03:11.945Z,33.65
2023-04-17T16:05:40.193Z,33.26
2023-04-17T16:08:08.026Z,32.78
2023-04-17T16:10:35.875Z,32.88
2023-04-17T16:13:03.759Z,32.32
2023-04-17T16:15:31.683Z,32.12
2023-04-17T16:17:59.804Z,32.38
2023-04-17T16:20:27.757Z,32.39
2023-04-17T16:22:56.254Z,32.43
2023-04-17T16:25:24.145Z,32.54
2023-04-17T16:27:52.208Z,32.91
2023-04-17T16:30:20.225Z,33.20
2023-04-17T16:32:50.134Z,32.88
2023-04-17T16:35:18.007Z,32.22
2023-04-17T16:37:46.007Z,32.22
2023-04-17T16:40:13.786Z,33.02
2023-04-17T16:42:41.855Z,32.54
2023-04-17T16:45:09.710Z,32.74
2023-04-17T16:47:38.895Z,33.42
2023-04-17T16:50:06.775Z,33.97
2023-04-17T16:52:34.588Z,33.52
2023-04-17T16:55:02.722Z,33.70
2023-04-17T16:57:31.123Z,33.79
2023-04-17T16:59:58.989Z,34.48
2023-04-17T17:02:28.497Z,34.00
2023-04-17T17:04:56.362Z,34.32
2023-04-17T17:07:24.399Z,34.03
2023-04-17T17:09:52.358Z,34.31
2023-04-17T17:12:20.428Z,34.56
2023-04-17T17:14:49.320Z,34.11
2023-04-17T17:17:17.842Z,34.45
2023-04-17T17:19:46.175Z,34.44
2023-04-17T17:22:14.372Z,34.42
2023-04-17T17:24:42.440Z,34.01
2023-04-17T17:27:10.294Z,34.35
2023-04-17T17:29:38.104Z,34.55
2023-04-17T17:32:05.885Z,34.76
2023-04-17T17:34:33.812Z,34.45
2023-04-17T17:37:01.638Z,34.97
2023-04-17T17:39:29.535Z,35.25
2023-04-17T17:41:57.817Z,34.64
2023-04-17T17:44:25.595Z,35.33
2023-04-17T17:46:53.551Z,35.29
2023-04-17T17:49:21.551Z,35.60
2023-04-17T17:51:52.400Z,35.38
2023-04-17T17:54:20.252Z,35.20
2023-04-17T17:56:48.309Z,35.61
2023-04-17T17:59:16.124Z,35.50
2023-04-17T18:01:43.950Z,34.93
2023-04-17T18:04:12.405Z,34.30
2023-04-17T18:06:41.151Z,34.58
2023-04-17T18:09:09.004Z,34.60
2023-04-17T18:11:36.884Z,34.29
2023-04-17T18:14:04.745Z,34.71
2023-04-17T18:16:33.158Z,34.14
2023-04-17T18:19:03.553Z,34.30
2023-04-17T18:21:32.014Z,34.25
2023-04-17T18:24:00.334Z,33.81
2023-04-17T18:26:28.112Z,34.02
2023-04-17T18:28:56.131Z,34.83
2023-04-17T18:31:25.315Z,34.36
2023-04-17T18:33:53.184Z,34.27
2023-04-17T18:36:21.142Z,34.21
2023-04-17T18:38:49.117Z,33.81
2023-04-17T18:41:17.109Z,33.78
2023-04-17T18:43:45.085Z,34.09
2023-04-17T18:46:13.008Z,34.89
2023-04-17T18:48:41.248Z,34.68
2023-04-17T18:51:09.084Z,34.58
2023-04-17T18:53:37.088Z,34.65
2023-04-17T18:56:04.966Z,35.10
2023-04-17T18:58:32.760Z,34.67
2023-04-17T19:01:00.790Z,35.36
2023-04-17T19:03:28.765Z,35.54
2023-04-17T19:05:56.599Z,35.21
2023-04-17T19:08:24.394Z,35.14
2023-04-17T19:10:52.139Z,35.20
2023-04-17T19:13:20.001Z,35.68
2023-04-17T19:15:48.230Z,35.72
2023-04-17T19:18:15.991Z,35.95
2023-04-17T19:20:43.847Z,35.76
2023-04-17T19:23:11.791Z,36.07
2023-04-17T19:25:41.674Z,36.32
2023-04-17T19:28:10.828Z,36.21
2023-04-17T19:30:38.906Z,36.41
2023-04-17T19:33:07.253Z,36.48
2023-04-17T19:35:35.432Z,36.18
2023-04-17T19:38:03.399Z,36.27
2023-04-17T19:40:31.374Z,36.50
2023-04-17T19:43:01.679Z,36.45
2023-04-17T19:45:32.075Z,36.50
2023-04-17T19:47:59.910Z,36.67
2023-04-17T19:50:33.359Z,36.51
2023-04-17T19:53:01.273Z,36.99
2023-04-17T19:55:29.119Z,36.81
2023-04-17T19:57:58.876Z,36.99
2023-04-17T20:00:26.967Z,37.05
2023-04-17T20:02:54.917Z,36.61
2023-04-17T20:05:23.157Z,37.01
2023-04-17T20:07:51.073Z,37.00
2023-04-17T20:10:18.990Z,36.68
2023-04-17T20:12:46.805Z,36.98
2023-04-17T20:15:14.662Z,37.05
2023-04-17T20:17:42.700Z,37.18
2023-04-17T20:20:10.584Z,37.22
2023-04-17T20:22:39.694Z,37.63
2023-04-17T20:25:07.570Z,37.23
2023-04-17T20:27:35.597Z,37.10
2023-04-17T20:30:03.587Z,37.50
2023-04-17T20:32:31.422Z,37.26
2023-04-17T20:34:59.218Z,37.28
2023-04-17T20:37:27.010Z,37.22
2023-04-17T20:39:54.870Z,37.27
2023-04-17T20:42:22.789Z,37.39
2023-04-17T20:44:50.656Z,37.52
2023-04-17T20:47:18.413Z,37.42
2023-04-17T20:49:46.179Z,37.71
2023-04-17T20:52:13.977Z,37.58
2023-04-17T20:54:42.035Z,37.74
2023-04-17T20:57:10.088Z,37.50
2023-04-17T20:59:38.494Z,37.93
2023-04-17T21:02:06.682Z,37.33
2023-04-17T21:04:34.722Z,37.26
2023-04-17T21:07:03.139Z,37.64
2023-04-17T21:09:31.264Z,37.04
2023-04-17T21:12:00.481Z,37.41
2023-04-17T21:14:29.586Z,37.91
2023-04-17T21:16:58.630Z,37.45
2023-04-17T21:19:27.338Z,37.45
2023-04-17T21:21:55.265Z,37.50
2023-04-17T21:24:23.070Z,37.33
2023-04-17T21:26:51.076Z,37.44
2023-04-17T21:29:18.910Z,37.82
2023-04-17T21:31:46.944Z,37.53
2023-04-17T21:34:15.103Z,37.51
2023-04-17T21:36:43.113Z,37.50
2023-04-17T21:39:11.117Z,37.70
2023-04-17T21:41:38.925Z,37.47
2023-04-17T21:44:11.594Z,37.36
2023-04-17T21:46:39.668Z,37.68
2023-04-17T21:49:07.566Z,37.73
2023-04-17T21:51:35.550Z,37.49
2023-04-17T21:54:04.241Z,37.22
2023-04-17T21:56:32.107Z,37.74
2023-04-17T21:58:59.976Z,37.47
2023-04-17T22:01:27.968Z,37.75
2023-04-17T22:04:00.134Z,37.59
2023-04-17T22:06:28.002Z,37.87
2023-04-17T22:08:55.779Z,37.72
2023-04-17T22:11:23.609Z,37.51
2023-04-17T22:13:51.548Z,37.99
2023-04-17T22:16:19.414Z,37.45
2023-04-17T22:18:47.500Z,37.42
2023-04-17T22:21:15.323Z,37.64
2023-04-17T22:23:43.210Z,37.66
2023-04-17T22:26:10.986Z,37.37
2023-04-17T22:28:38.816Z,37.70
2023-04-17T22:31:06.765Z,37.73
2023-04-17T22:33:35.260Z,37.72
2023-04-17T22:36:03.391Z,37.73
2023-04-17T22:38:31.199Z,38.02
2023-04-17T22:40:59.028Z,37.75
2023-04-17T22:43:26.815Z,37.76
2023-04-17T22:45:54.648Z,38.16
2023-04-17T22:48:24.495Z,38.01
2023-04-17T22:50:52.619Z,38.04
2023-04-17T22:53:20.456Z,38.00
2023-04-17T22:55:48.290Z,38.11
2023-04-17T22:58:16.282Z,38.41
2023-04-17T23:00:44.154Z,38.40
2023-04-17T23:03:12.031Z,38.14
2023-04-17T23:05:39.975Z,38.00
2023-04-17T23:08:07.762Z,38.15
2023-04-17T23:10:35.619Z,38.26
2023-04-17T23:15:37.689Z,37.93
2023-04-17T23:18:05.561Z,38.44
2023-04-17T23:20:33.477Z,38.07
2023-04-17T23:23:01.264Z,38.50
2023-04-17T23:25:29.083Z,38.38
2023-04-17T23:27:56.994Z,38.00
2023-04-17T23:30:24.763Z,37.84
2023-04-17T23:32:53.753Z,38.56
2023-04-17T23:35:21.633Z,38.26
2023-04-17T23:37:49.528Z,38.30
2023-04-17T23:40:17.419Z,38.30
2023-04-17T23:42:45.336Z,38.42
2023-04-17T23:45:13.138Z,38.33
2023-04-17T23:47:40.933Z,38.37
2023-04-17T23:50:08.761Z,38.50
2023-04-17T23:52:36.744Z,38.20
2023-04-17T23:55:04.896Z,38.35
2023-04-17T23:57:34.677Z,38.53
